createdAt,value
2022-10-02T00:02:17.928Z,3.05
2022-10-02T00:05:43.494Z,2.88
2022-10-02T00:09:07.862Z,3.60
2022-10-02T00:12:32.075Z,3.40
2022-10-02T00:15:56.267Z,3.30
2022-10-02T00:19:19.802Z,3.10
2022-10-02T00:22:49.113Z,3.53
2022-10-02T00:26:17.558Z,4.00
2022-10-02T00:29:47.014Z,3.70
2022-10-02T00:33:19.267Z,4.10
2022-10-02T00:36:49.364Z,3.28
2022-10-02T00:40:37.120Z,3.40
2022-10-02T00:44:18.003Z,3.45
2022-10-02T00:47:49.447Z,2.97
2022-10-02T00:51:19.660Z,3.40
2022-10-02T00:55:00.255Z,2.75
2022-10-02T00:58:42.109Z,3.08
2022-10-02T01:02:12.217Z,3.20
2022-10-02T01:05:34.758Z,3.22
2022-10-02T01:08:57.646Z,3.10
2022-10-02T01:12:18.874Z,2.85
2022-10-02T01:15:45.484Z,3.13
2022-10-02T01:19:11.402Z,3.03
2022-10-02T01:22:39.728Z,3.13
2022-10-02T01:26:02.953Z,3.10
2022-10-02T01:29:24.268Z,3.50
2022-10-02T01:32:50.061Z,3.08
2022-10-02T01:36:14.725Z,3.35
2022-10-02T01:39:35.951Z,3.22
2022-10-02T01:43:01.905Z,3.20
2022-10-02T01:46:37.779Z,3.33
2022-10-02T01:50:13.325Z,3.45
2022-10-02T01:53:41.429Z,2.92
2022-10-02T01:57:10.428Z,2.97
2022-10-02T02:00:46.864Z,2.80
2022-10-02T02:04:23.319Z,3.30
2022-10-02T02:07:50.076Z,2.70
2022-10-02T02:11:14.930Z,2.83
2022-10-02T02:14:39.524Z,2.83
2022-10-02T02:18:09.823Z,3.67
2022-10-02T02:21:34.133Z,2.75
2022-10-02T02:25:00.095Z,2.42
2022-10-02T02:28:24.573Z,2.65
2022-10-02T02:31:52.001Z,2.97
2022-10-02T02:35:19.597Z,2.88
2022-10-02T02:38:46.639Z,2.88
2022-10-02T02:42:17.593Z,2.40
2022-10-02T02:45:46.425Z,3.10
2022-10-02T02:49:12.729Z,3.35
2022-10-02T02:52:42.797Z,3.30
2022-10-02T02:56:06.915Z,3.05
2022-10-02T02:59:31.403Z,2.83
2022-10-02T03:02:54.621Z,3.67
2022-10-02T03:06:33.279Z,3.08
2022-10-02T03:10:06.829Z,3.35
2022-10-02T03:13:40.887Z,3.28
2022-10-02T03:17:11.641Z,3.40
2022-10-02T03:20:42.528Z,3.20
2022-10-02T03:24:10.006Z,3.05
2022-10-02T03:27:36.881Z,4.20
2022-10-02T03:30:59.932Z,3.40
2022-10-02T03:34:21.993Z,2.97
2022-10-02T03:37:46.386Z,3.50
2022-10-02T03:41:07.790Z,2.85
2022-10-02T03:44:30.493Z,3.08
2022-10-02T03:47:51.775Z,2.90
2022-10-02T03:51:13.349Z,2.83
2022-10-02T03:54:36.767Z,2.67
2022-10-02T03:57:58.481Z,2.90
2022-10-02T04:01:26.729Z,2.63
2022-10-02T04:04:55.643Z,2.58
2022-10-02T04:08:20.025Z,2.67
2022-10-02T04:11:46.144Z,2.60
2022-10-02T04:15:15.883Z,2.28
2022-10-02T04:18:48.727Z,2.45
2022-10-02T04:22:17.506Z,2.22
2022-10-02T04:25:43.763Z,2.00
2022-10-02T04:29:13.307Z,2.67
2022-10-02T04:32:36.191Z,2.58
2022-10-02T04:36:08.952Z,2.58
2022-10-02T04:39:53.031Z,2.47
2022-10-02T04:43:24.960Z,2.45
2022-10-02T04:47:04.652Z,2.53
2022-10-02T04:50:45.086Z,2.50
2022-10-02T04:54:27.423Z,2.33
2022-10-02T04:58:23.007Z,2.20
2022-10-02T05:02:03.066Z,2.40
2022-10-02T05:05:38.323Z,2.50
2022-10-02T05:09:08.700Z,2.30
2022-10-02T05:12:46.957Z,2.60
2022-10-02T05:16:32.738Z,2.80
2022-10-02T05:20:12.520Z,3.00
2022-10-02T05:24:04.070Z,2.67
2022-10-02T05:27:51.451Z,2.55
2022-10-02T05:31:24.733Z,2.88
2022-10-02T05:35:02.196Z,2.50
2022-10-02T05:38:40.081Z,2.28
2022-10-02T05:42:08.599Z,2.40
2022-10-02T05:45:36.745Z,2.15
2022-10-02T05:49:00.183Z,2.42
2022-10-02T05:52:38.557Z,2.20
2022-10-02T05:56:05.788Z,2.50
2022-10-02T05:59:37.621Z,2.23
2022-10-02T06:03:12.694Z,1.95
2022-10-02T06:06:39.547Z,2.47
2022-10-02T06:10:07.901Z,2.05
2022-10-02T06:13:37.237Z,2.03
2022-10-02T06:17:04.757Z,2.75
2022-10-02T06:20:33.663Z,2.28
2022-10-02T06:23:59.691Z,2.38
2022-10-02T06:27:29.238Z,2.15
2022-10-02T06:30:56.505Z,2.30
2022-10-02T06:34:18.252Z,2.40
2022-10-02T06:37:55.192Z,2.22
2022-10-02T06:41:25.234Z,2.22
2022-10-02T06:44:59.245Z,2.03
2022-10-02T06:48:26.880Z,2.83
2022-10-02T06:52:00.490Z,2.53
2022-10-02T06:55:41.205Z,2.20
2022-10-02T06:59:15.240Z,2.30
2022-10-02T07:03:17.393Z,2.65
2022-10-02T07:06:47.733Z,2.10
2022-10-02T07:10:22.860Z,2.40
2022-10-02T07:13:57.606Z,2.05
2022-10-02T07:17:31.108Z,2.45
2022-10-02T07:20:59.995Z,2.90
2022-10-02T07:24:43.632Z,2.55
2022-10-02T07:28:14.546Z,2.30
2022-10-02T07:31:51.515Z,2.70
2022-10-02T07:35:38.450Z,2.20
2022-10-02T07:39:12.472Z,2.63
2022-10-02T07:42:51.119Z,2.30
2022-10-02T07:46:18.084Z,2.60
2022-10-02T07:49:51.803Z,3.38
2022-10-02T07:53:24.798Z,3.63
2022-10-02T07:56:50.088Z,2.67
2022-10-02T08:00:15.028Z,2.95
2022-10-02T08:03:41.163Z,3.65
2022-10-02T08:07:06.456Z,3.03
2022-10-02T08:10:33.663Z,3.88
2022-10-02T08:13:58.471Z,3.70
2022-10-02T08:17:30.499Z,3.38
2022-10-02T08:20:52.066Z,3.75
2022-10-02T08:24:18.323Z,3.50
2022-10-02T08:27:51.197Z,3.65
2022-10-02T08:31:14.466Z,4.13
2022-10-02T08:34:36.186Z,3.50
2022-10-02T08:38:21.493Z,4.35
2022-10-02T08:42:20.108Z,3.35
2022-10-02T08:46:10.658Z,3.30
2022-10-02T08:50:07.713Z,3.60
2022-10-02T08:53:58.270Z,3.28
2022-10-02T08:57:45.411Z,3.28
2022-10-02T09:01:21.904Z,3.65
2022-10-02T09:05:21.795Z,3.10
2022-10-02T09:09:28.475Z,3.60
2022-10-02T09:13:19.102Z,3.70
2022-10-02T09:17:02.472Z,4.38
2022-10-02T09:20:42.770Z,4.32
2022-10-02T09:24:48.964Z,4.35
2022-10-02T09:28:46.340Z,5.35
2022-10-02T09:32:43.216Z,4.38
2022-10-02T09:36:45.798Z,4.93
2022-10-02T09:40:41.142Z,5.43
2022-10-02T09:44:28.456Z,5.20
2022-10-02T09:48:15.162Z,5.28
2022-10-02T09:52:17.092Z,5.03
2022-10-02T09:56:24.052Z,5.43
2022-10-02T10:00:18.117Z,5.05
2022-10-02T10:04:17.602Z,4.88
2022-10-02T10:07:56.123Z,5.72
2022-10-02T10:11:55.109Z,6.10
2022-10-02T10:15:56.091Z,5.38
2022-10-02T10:19:59.497Z,3.90
2022-10-02T10:23:37.489Z,2.70
2022-10-02T10:27:43.107Z,2.95
2022-10-02T10:31:45.990Z,2.53
2022-10-02T10:35:26.980Z,3.55
2022-10-02T10:38:52.393Z,3.00
2022-10-02T10:43:05.973Z,3.38
2022-10-02T10:46:54.126Z,2.40
2022-10-02T10:50:35.824Z,1.98
2022-10-02T10:54:29.441Z,1.80
2022-10-02T10:58:15.162Z,1.50
2022-10-02T11:01:52.060Z,1.60
2022-10-02T11:05:40.594Z,1.77
2022-10-02T11:09:37.954Z,1.92
2022-10-02T11:13:15.823Z,1.90
2022-10-02T11:17:04.582Z,1.70
2022-10-02T11:20:41.714Z,1.60
2022-10-02T11:24:34.109Z,1.90
2022-10-02T11:28:25.548Z,1.92
2022-10-02T11:32:02.911Z,1.70
2022-10-02T11:35:38.253Z,1.70
2022-10-02T11:39:17.291Z,2.15
2022-10-02T11:42:55.983Z,2.30
2022-10-02T11:46:37.649Z,2.10
2022-10-02T11:50:33.788Z,3.17
2022-10-02T11:54:20.756Z,2.25
2022-10-02T11:57:51.285Z,2.35
2022-10-02T12:01:22.521Z,2.35
2022-10-02T12:05:05.941Z,2.80
2022-10-02T12:08:42.880Z,2.58
2022-10-02T12:12:24.593Z,2.40
2022-10-02T12:15:57.915Z,2.78
2022-10-02T12:19:31.690Z,2.28
2022-10-02T12:23:21.086Z,2.90
2022-10-02T12:27:03.894Z,2.13
2022-10-02T12:30:32.974Z,2.97
2022-10-02T12:34:01.196Z,2.08
2022-10-02T12:37:31.647Z,2.22
2022-10-02T12:41:08.613Z,2.03
2022-10-02T12:44:48.997Z,2.00
2022-10-02T12:48:32.255Z,2.10
2022-10-02T12:52:10.490Z,1.80
2022-10-02T12:55:56.962Z,2.00
2022-10-02T12:59:31.313Z,2.10
2022-10-02T13:03:40.804Z,1.80
2022-10-02T13:07:30.171Z,1.88
2022-10-02T13:11:03.642Z,1.75
2022-10-02T13:14:41.859Z,1.70
2022-10-02T13:18:27.008Z,1.70
2022-10-02T13:21:58.921Z,2.05
2022-10-02T13:25:34.495Z,1.85
2022-10-02T13:29:18.164Z,1.50
2022-10-02T13:32:55.093Z,1.88
2022-10-02T13:36:25.097Z,1.67
2022-10-02T13:40:05.269Z,1.65
2022-10-02T13:43:40.912Z,1.98
2022-10-02T13:47:26.344Z,1.30
2022-10-02T13:50:55.466Z,1.63
2022-10-02T13:54:39.233Z,1.70
2022-10-02T13:58:20.706Z,1.50
2022-10-02T14:01:56.909Z,1.52
2022-10-02T14:05:31.859Z,1.55
2022-10-02T14:09:10.792Z,1.80
2022-10-02T14:12:46.616Z,2.15
2022-10-02T14:16:18.423Z,1.77
2022-10-02T14:20:03.781Z,1.83
2022-10-02T14:23:55.254Z,2.03
2022-10-02T14:27:41.633Z,1.60
2022-10-02T14:31:26.529Z,1.67
2022-10-02T14:35:35.659Z,1.90
2022-10-02T14:39:26.230Z,1.73
2022-10-02T14:43:07.468Z,1.40
2022-10-02T14:46:41.433Z,1.55
2022-10-02T14:50:25.253Z,1.27
2022-10-02T14:53:58.927Z,1.20
2022-10-02T14:57:37.637Z,1.48
2022-10-02T15:01:18.713Z,1.52
2022-10-02T15:04:51.105Z,1.40
2022-10-02T15:08:16.515Z,1.30
2022-10-02T15:11:54.334Z,1.55
2022-10-02T15:15:23.659Z,1.70
2022-10-02T15:18:50.387Z,1.30
2022-10-02T15:22:20.158Z,1.60
2022-10-02T15:26:07.439Z,1.88
2022-10-02T15:29:39.735Z,1.95
2022-10-02T15:33:16.033Z,1.45
2022-10-02T15:36:53.296Z,1.60
2022-10-02T15:40:38.717Z,1.90
2022-10-02T15:44:10.434Z,3.20
2022-10-02T15:47:42.364Z,2.10
2022-10-02T15:51:17.283Z,1.80
2022-10-02T15:54:55.181Z,1.42
2022-10-02T15:58:27.948Z,1.42
2022-10-02T16:02:03.640Z,2.40
2022-10-02T16:05:38.472Z,2.03
2022-10-02T16:09:40.775Z,1.50
2022-10-02T16:13:29.352Z,1.33
2022-10-02T16:17:10.659Z,2.42
2022-10-02T16:20:56.604Z,2.00
2022-10-02T16:24:49.661Z,1.95
2022-10-02T16:28:23.855Z,1.90
2022-10-02T16:32:05.670Z,1.95
2022-10-02T16:35:51.811Z,2.40
2022-10-02T16:39:39.842Z,2.45
2022-10-02T16:43:36.815Z,2.75
2022-10-02T16:47:08.462Z,2.40
2022-10-02T16:50:42.155Z,2.78
2022-10-02T16:54:15.149Z,3.58
2022-10-02T16:57:54.727Z,3.40
2022-10-02T17:01:27.654Z,3.60
2022-10-02T17:05:03.140Z,4.15
2022-10-02T17:08:32.883Z,3.67
2022-10-02T17:12:03.754Z,12.07
2022-10-02T17:15:33.261Z,10.23
2022-10-02T17:18:58.807Z,5.57
2022-10-02T17:22:33.138Z,7.93
2022-10-02T17:26:02.801Z,4.00
2022-10-02T17:29:29.021Z,2.97
2022-10-02T17:33:05.602Z,3.22
2022-10-02T17:36:37.007Z,3.65
2022-10-02T17:40:06.700Z,3.75
2022-10-02T17:43:39.032Z,4.55
2022-10-02T17:47:38.646Z,5.60
2022-10-02T17:51:51.168Z,6.38
2022-10-02T17:55:44.706Z,4.50
2022-10-02T17:59:27.673Z,4.60
2022-10-02T18:03:18.756Z,5.35
2022-10-02T18:06:52.458Z,4.97
2022-10-02T18:10:25.699Z,4.10
2022-10-02T18:13:59.629Z,3.63
2022-10-02T18:17:30.405Z,3.30
2022-10-02T18:21:01.276Z,3.45
2022-10-02T18:24:44.760Z,2.83
2022-10-02T18:28:21.646Z,2.90
2022-10-02T18:32:00.159Z,3.78
2022-10-02T18:35:32.177Z,3.40
2022-10-02T18:39:00.355Z,3.17
2022-10-02T18:42:40.001Z,3.58
2022-10-02T18:46:13.517Z,3.67
2022-10-02T18:49:58.341Z,3.50
2022-10-02T18:53:47.336Z,3.75
2022-10-02T18:57:28.823Z,3.25
2022-10-02T19:01:08.357Z,3.85
2022-10-02T19:04:55.379Z,3.15
2022-10-02T19:08:24.279Z,3.60
2022-10-02T19:11:48.302Z,4.57
2022-10-02T19:15:21.731Z,4.60
2022-10-02T19:18:44.833Z,4.30
2022-10-02T19:22:16.569Z,3.80
2022-10-02T19:25:38.092Z,3.63
2022-10-02T19:29:06.476Z,4.28
2022-10-02T19:32:32.463Z,11.23
2022-10-02T19:35:55.800Z,5.70
2022-10-02T19:39:21.493Z,4.93
2022-10-02T19:42:49.335Z,4.20
2022-10-02T19:46:12.659Z,3.67
2022-10-02T19:49:39.442Z,3.80
2022-10-02T19:53:06.928Z,3.05
2022-10-02T19:56:34.325Z,3.20
2022-10-02T19:59:56.036Z,3.88
2022-10-02T20:03:21.210Z,7.90
2022-10-02T20:06:44.164Z,3.92
2022-10-02T20:10:15.266Z,3.30
2022-10-02T20:13:44.765Z,3.45
2022-10-02T20:17:10.188Z,3.47
2022-10-02T20:20:32.188Z,2.70
2022-10-02T20:23:58.241Z,2.15
2022-10-02T20:27:30.402Z,2.35
2022-10-02T20:30:56.425Z,2.75
2022-10-02T20:34:26.550Z,2.92
2022-10-02T20:37:50.643Z,3.20
2022-10-02T20:41:18.441Z,2.72
2022-10-02T20:44:42.651Z,2.80
2022-10-02T20:49:03.559Z,2.95
2022-10-02T20:52:49.101Z,3.10
2022-10-02T20:56:23.552Z,2.97
2022-10-02T21:00:15.030Z,3.08
2022-10-02T21:07:51.280Z,2.83
2022-10-02T21:11:21.967Z,3.00
2022-10-02T21:15:04.155Z,3.17
2022-10-02T21:19:12.847Z,3.10
2022-10-02T21:23:00.104Z,2.72
2022-10-02T21:27:07.919Z,2.72
2022-10-02T21:30:41.808Z,2.60
2022-10-02T21:34:15.488Z,2.75
2022-10-02T21:37:53.724Z,2.72
2022-10-02T21:41:53.953Z,3.08
2022-10-02T21:45:51.817Z,2.85
2022-10-02T21:49:45.152Z,2.88
2022-10-02T21:53:50.678Z,3.00
2022-10-02T21:57:40.043Z,2.60
2022-10-02T22:01:30.278Z,3.55
2022-10-02T22:05:27.181Z,3.00
2022-10-02T22:09:17.624Z,3.00
2022-10-02T22:12:52.534Z,2.85
2022-10-02T22:16:30.200Z,3.10
2022-10-02T22:20:10.698Z,3.45
2022-10-02T22:24:01.183Z,2.78
2022-10-02T22:27:45.753Z,3.28
2022-10-02T22:31:35.114Z,3.33
2022-10-02T22:35:08.384Z,3.55
2022-10-02T22:38:34.243Z,2.90
2022-10-02T22:42:01.738Z,3.13
2022-10-02T22:45:31.812Z,2.70
2022-10-02T22:49:00.273Z,3.25
2022-10-02T22:52:27.562Z,2.83
2022-10-02T22:55:53.069Z,2.88
2022-10-02T22:59:23.979Z,2.83
2022-10-02T23:02:51.907Z,3.10
2022-10-02T23:06:22.788Z,3.20
2022-10-02T23:09:51.612Z,2.60
2022-10-02T23:13:17.844Z,3.05
2022-10-02T23:16:48.149Z,2.88
2022-10-02T23:20:16.959Z,2.50
2022-10-02T23:23:50.864Z,3.40
2022-10-02T23:27:16.892Z,2.40
2022-10-02T23:30:45.194Z,3.05
2022-10-02T23:34:20.150Z,2.83
2022-10-02T23:37:48.732Z,2.92
2022-10-02T23:41:33.711Z,3.10
2022-10-02T23:45:04.081Z,3.40
2022-10-02T23:48:25.477Z,3.00
2022-10-02T23:51:55.100Z,3.10
2022-10-02T23:55:55.018Z,2.75
2022-10-02T23:59:36.204Z,2.90
